createdAt,value
2022-08-11T00:01:26.303Z,4.65
2022-08-11T00:03:57.351Z,4.84
2022-08-11T00:06:34.818Z,4.38
2022-08-11T00:09:07.592Z,5.00
2022-08-11T00:12:01.831Z,5.03
2022-08-11T00:14:36.732Z,4.75
2022-08-11T00:17:09.252Z,4.93
2022-08-11T00:20:11.939Z,4.86
2022-08-11T00:22:40.589Z,4.57
2022-08-11T00:25:18.030Z,4.62
2022-08-11T00:27:48.015Z,4.88
2022-08-11T00:30:17.046Z,4.75
2022-08-11T00:32:55.251Z,4.89
2022-08-11T00:35:51.250Z,4.51
2022-08-11T00:38:18.985Z,4.52
2022-08-11T00:41:14.775Z,4.37
2022-08-11T00:44:10.788Z,4.68
2022-08-11T00:47:18.932Z,4.59
2022-08-11T00:50:06.123Z,4.57
2022-08-11T00:53:03.611Z,5.04
2022-08-11T00:56:03.305Z,4.95
2022-08-11T00:58:51.110Z,4.71
2022-08-11T01:01:27.408Z,5.03
2022-08-11T01:04:04.592Z,5.02
2022-08-11T01:06:51.957Z,4.71
2022-08-11T01:09:33.869Z,4.64
2022-08-11T01:12:40.800Z,4.50
2022-08-11T01:15:41.336Z,4.66
2022-08-11T01:18:42.419Z,4.98
2022-08-11T01:21:53.475Z,4.63
2022-08-11T01:24:41.478Z,4.83
2022-08-11T01:27:21.167Z,4.65
2022-08-11T01:30:10.798Z,4.88
2022-08-11T01:33:27.006Z,4.91
2022-08-11T01:36:39.519Z,4.69
2022-08-11T01:39:44.900Z,4.93
2022-08-11T01:42:46.894Z,5.12
2022-08-11T01:45:29.886Z,4.76
2022-08-11T01:48:41.780Z,4.77
2022-08-11T01:51:30.281Z,4.93
2022-08-11T01:54:07.926Z,4.72
2022-08-11T01:56:43.125Z,4.97
2022-08-11T01:59:16.674Z,4.78
2022-08-11T02:02:03.185Z,4.92
2022-08-11T02:04:35.289Z,5.04
2022-08-11T02:07:14.031Z,4.81
2022-08-11T02:10:29.602Z,5.09
2022-08-11T02:13:16.720Z,5.08
2022-08-11T02:16:07.604Z,5.16
2022-08-11T02:18:58.751Z,4.94
2022-08-11T02:22:11.265Z,4.74
2022-08-11T02:24:54.561Z,4.73
2022-08-11T02:27:27.823Z,5.01
2022-08-11T02:30:07.557Z,4.96
2022-08-11T02:33:05.317Z,5.27
2022-08-11T02:35:45.815Z,5.35
2022-08-11T02:38:21.999Z,5.04
2022-08-11T02:41:02.197Z,4.56
2022-08-11T02:43:58.102Z,4.53
2022-08-11T02:46:32.948Z,4.86
2022-08-11T02:49:22.338Z,4.81
2022-08-11T02:52:14.731Z,4.71
2022-08-11T02:54:59.162Z,4.79
2022-08-11T02:57:45.054Z,5.04
2022-08-11T03:00:16.143Z,4.90
2022-08-11T03:02:56.049Z,4.99
2022-08-11T03:05:42.865Z,4.94
2022-08-11T03:08:32.141Z,5.04
2022-08-11T03:12:17.695Z,4.74
2022-08-11T03:15:08.340Z,5.24
2022-08-11T03:17:56.155Z,4.85
2022-08-11T03:20:33.512Z,5.65
2022-08-11T03:23:20.739Z,5.05
2022-08-11T03:26:24.281Z,5.48
2022-08-11T03:29:24.847Z,5.57
2022-08-11T03:32:04.563Z,5.27
2022-08-11T03:34:36.787Z,5.27
2022-08-11T03:37:46.891Z,5.11
2022-08-11T03:40:52.030Z,5.39
2022-08-11T03:43:39.034Z,4.81
2022-08-11T03:46:32.686Z,5.19
2022-08-11T03:49:22.816Z,4.90
2022-08-11T03:52:09.881Z,5.16
2022-08-11T03:54:47.930Z,5.32
2022-08-11T03:57:40.624Z,6.07
2022-08-11T04:00:30.321Z,5.74
2022-08-11T04:03:08.059Z,5.80
2022-08-11T04:06:13.483Z,6.02
2022-08-11T04:09:12.310Z,6.00
2022-08-11T04:11:57.485Z,5.95
2022-08-11T04:14:52.789Z,5.98
2022-08-11T04:17:54.767Z,6.23
2022-08-11T04:20:34.827Z,5.80
2022-08-11T04:24:12.938Z,6.17
2022-08-11T04:26:56.697Z,5.88
2022-08-11T04:30:05.486Z,5.93
2022-08-11T04:32:58.723Z,6.58
2022-08-11T04:36:21.273Z,6.33
2022-08-11T04:39:13.840Z,6.24
2022-08-11T04:42:31.027Z,6.26
2022-08-11T04:45:34.201Z,6.23
2022-08-11T04:48:36.011Z,6.63
2022-08-11T16:48:54.232Z,2.54
2022-08-11T16:51:23.092Z,2.66
2022-08-11T16:54:04.083Z,2.38
2022-08-11T16:56:38.000Z,2.32
2022-08-11T17:33:08.696Z,2.68
2022-08-11T17:40:30.328Z,2.52
2022-08-11T17:43:19.180Z,2.49
2022-08-11T17:46:05.335Z,2.62
2022-08-11T17:48:47.899Z,2.61
2022-08-11T17:51:37.860Z,2.40
2022-08-11T17:54:26.300Z,2.60
2022-08-11T17:57:20.145Z,2.51
2022-08-11T17:59:52.779Z,2.59
2022-08-11T18:02:49.804Z,2.83
2022-08-11T18:05:20.193Z,2.87
2022-08-11T18:08:10.384Z,2.96
2022-08-11T18:12:11.365Z,2.95
2022-08-11T18:18:57.824Z,2.91
2022-08-11T18:21:46.844Z,2.62
2022-08-11T18:25:00.334Z,3.95
2022-08-11T18:27:51.858Z,3.17
2022-08-11T18:30:39.159Z,2.75
2022-08-11T18:36:40.242Z,3.43
2022-08-11T18:39:29.702Z,3.19
2022-08-11T18:42:29.048Z,2.63
2022-08-11T18:45:22.739Z,2.69
2022-08-11T18:48:12.843Z,2.64
2022-08-11T18:51:49.571Z,2.76
2022-08-11T18:54:38.272Z,2.74
2022-08-11T18:57:27.211Z,2.66
2022-08-11T19:00:18.604Z,2.48
2022-08-11T19:03:06.945Z,2.77
2022-08-11T19:06:35.699Z,2.84
2022-08-11T19:09:12.232Z,2.88
2022-08-11T19:12:00.394Z,2.68
2022-08-11T19:23:28.770Z,2.63
2022-08-11T19:31:09.699Z,2.83
2022-08-11T19:43:31.635Z,3.15
2022-08-11T21:22:58.982Z,3.33
2022-08-11T21:30:47.745Z,3.31
2022-08-11T21:33:35.898Z,3.48
2022-08-11T21:36:26.696Z,3.52
2022-08-11T21:39:13.186Z,3.38
2022-08-11T21:51:41.577Z,3.24
2022-08-11T21:59:36.963Z,3.30
2022-08-11T22:22:35.890Z,3.51
2022-08-11T22:39:13.065Z,3.60
2022-08-11T23:25:33.017Z,3.73
2022-08-11T23:28:20.807Z,3.72
2022-08-11T23:31:10.326Z,3.91
2022-08-11T23:34:01.383Z,3.82
2022-08-11T23:36:48.116Z,3.78
2022-08-11T23:39:35.819Z,3.57
2022-08-11T23:42:22.892Z,3.29
2022-08-11T23:45:10.899Z,3.69
2022-08-11T23:48:00.547Z,3.68
2022-08-11T23:50:47.674Z,3.49
2022-08-11T23:53:36.631Z,3.33
2022-08-11T23:56:23.547Z,3.36
2022-08-11T23:59:15.896Z,3.19
